createdAt,value
2018-11-06T00:00:20.201Z,8.80
2018-11-06T00:02:53.185Z,8.80
2018-11-06T00:05:21.926Z,8.80
2018-11-06T00:07:50.672Z,8.80
2018-11-06T00:10:19.397Z,8.80
2018-11-06T00:12:48.114Z,8.70
2018-11-06T00:15:16.826Z,8.70
2018-11-06T00:17:45.601Z,8.70
2018-11-06T00:20:15.169Z,8.70
2018-11-06T00:22:43.905Z,8.70
2018-11-06T00:25:13.365Z,8.60
2018-11-06T00:27:42.257Z,8.50
2018-11-06T00:30:12.365Z,8.50
2018-11-06T00:32:41.573Z,8.50
2018-11-06T00:35:11.582Z,8.50
2018-11-06T00:37:41.321Z,8.50
2018-11-06T00:40:10.043Z,8.50
2018-11-06T00:42:39.064Z,8.50
2018-11-06T00:45:10.215Z,8.50
2018-11-06T00:47:39.201Z,8.50
2018-11-06T00:50:09.243Z,8.50
2018-11-06T00:52:38.541Z,8.50
2018-11-06T00:55:08.109Z,8.50
2018-11-06T00:57:37.830Z,8.50
2018-11-06T01:00:09.192Z,8.50
2018-11-06T01:02:37.937Z,8.50
2018-11-06T01:05:07.537Z,8.40
2018-11-06T01:07:36.317Z,8.30
2018-11-06T01:10:05.925Z,8.30
2018-11-06T01:12:35.481Z,8.30
2018-11-06T01:15:04.669Z,8.30
2018-11-06T01:17:33.553Z,8.20
2018-11-06T01:20:02.257Z,8.30
2018-11-06T01:22:31.432Z,8.30
2018-11-06T01:25:01.355Z,8.30
2018-11-06T01:27:30.071Z,8.20
2018-11-06T01:29:58.814Z,8.20
2018-11-06T01:32:27.525Z,8.20
2018-11-06T01:34:56.244Z,8.20
2018-11-06T01:37:24.977Z,8.20
2018-11-06T01:39:53.688Z,8.20
2018-11-06T01:42:22.427Z,8.20
2018-11-06T01:44:51.169Z,8.20
2018-11-06T01:47:19.894Z,8.20
2018-11-06T01:49:48.619Z,8.20
2018-11-06T01:52:17.345Z,8.10
2018-11-06T01:54:46.094Z,8.10
2018-11-06T01:57:14.826Z,8.10
2018-11-06T01:59:43.545Z,8.10
2018-11-06T02:02:12.264Z,8.00
2018-11-06T02:04:41.022Z,7.90
2018-11-06T02:07:09.738Z,7.90
2018-11-06T02:09:38.493Z,7.90
2018-11-06T02:12:07.217Z,7.80
2018-11-06T02:14:35.956Z,7.90
2018-11-06T02:17:04.899Z,7.80
2018-11-06T02:19:33.737Z,7.80
2018-11-06T02:22:02.453Z,7.80
2018-11-06T02:24:31.178Z,7.70
2018-11-06T02:26:59.926Z,7.70
2018-11-06T02:29:28.669Z,7.70
2018-11-06T02:31:57.385Z,7.70
2018-11-06T02:34:26.093Z,7.60
2018-11-06T02:36:54.821Z,7.60
2018-11-06T02:39:23.554Z,7.50
2018-11-06T02:41:52.257Z,7.50
2018-11-06T02:44:20.986Z,7.40
2018-11-06T02:46:49.730Z,7.30
2018-11-06T02:49:18.459Z,7.20
2018-11-06T02:51:47.185Z,7.20
2018-11-06T02:54:15.902Z,7.10
2018-11-06T02:56:44.613Z,7.10
2018-11-06T02:59:13.337Z,7.10
2018-11-06T03:01:42.069Z,7.10
2018-11-06T03:04:10.794Z,7.10
2018-11-06T03:06:39.521Z,7.10
2018-11-06T03:09:08.554Z,7.20
2018-11-06T03:11:37.455Z,7.20
2018-11-06T03:14:06.146Z,7.20
2018-11-06T03:16:58.699Z,7.20
2018-11-06T03:19:32.825Z,7.30
2018-11-06T03:22:07.180Z,7.30
2018-11-06T03:24:41.393Z,7.40
2018-11-06T03:27:13.910Z,7.40
2018-11-06T03:29:42.599Z,7.40
2018-11-06T03:32:11.306Z,7.40
2018-11-06T03:34:40.034Z,7.40
2018-11-06T03:37:09.037Z,7.40
2018-11-06T03:39:37.745Z,7.40
2018-11-06T03:42:06.614Z,7.40
2018-11-06T03:44:35.326Z,7.40
2018-11-06T03:47:04.313Z,7.30
2018-11-06T03:49:33.001Z,7.30
2018-11-06T03:52:01.693Z,7.30
2018-11-06T03:54:30.401Z,7.30
2018-11-06T03:56:59.129Z,7.30
2018-11-06T03:59:27.842Z,7.30
2018-11-06T04:01:56.544Z,7.30
2018-11-06T04:04:25.284Z,7.30
2018-11-06T04:06:54.002Z,7.30
2018-11-06T04:09:22.710Z,7.30
2018-11-06T04:11:51.408Z,7.30
2018-11-06T04:14:20.142Z,7.20
2018-11-06T04:16:48.834Z,7.20
2018-11-06T04:19:17.529Z,7.10
2018-11-06T04:21:46.302Z,7.00
2018-11-06T04:24:15.009Z,7.00
2018-11-06T04:26:43.715Z,7.00
2018-11-06T04:29:12.401Z,7.00
2018-11-06T04:31:41.408Z,7.00
2018-11-06T04:34:10.137Z,7.00
2018-11-06T04:36:38.833Z,7.00
2018-11-06T04:39:08.921Z,7.00
2018-11-06T04:41:37.609Z,7.00
2018-11-06T04:44:06.725Z,7.00
2018-11-06T04:46:35.435Z,7.00
2018-11-06T04:49:04.552Z,6.90
2018-11-06T04:51:33.253Z,6.90
2018-11-06T04:54:02.655Z,7.00
2018-11-06T04:56:31.966Z,7.00
2018-11-06T04:59:00.677Z,7.00
2018-11-06T05:01:29.393Z,6.90
2018-11-06T05:03:58.085Z,6.90
2018-11-06T05:06:26.817Z,6.90
2018-11-06T05:08:55.517Z,6.80
2018-11-06T05:11:24.217Z,6.80
2018-11-06T05:13:52.961Z,6.80
2018-11-06T05:16:21.629Z,6.70
2018-11-06T05:18:50.341Z,6.70
2018-11-06T05:21:19.041Z,6.60
2018-11-06T05:23:47.754Z,6.40
2018-11-06T05:26:16.454Z,6.30
2018-11-06T05:31:57.533Z,6.10
2018-11-06T05:34:26.441Z,6.10
2018-11-06T05:36:55.137Z,6.10
2018-11-06T05:39:23.877Z,6.20
2018-11-06T05:41:52.625Z,6.20
2018-11-06T05:44:21.350Z,6.20
2018-11-06T05:46:50.046Z,6.20
2018-11-06T05:49:18.745Z,6.30
2018-11-06T05:51:47.459Z,6.30
2018-11-06T05:54:16.162Z,6.20
2018-11-06T05:56:44.865Z,6.30
2018-11-06T05:59:13.607Z,6.30
2018-11-06T06:01:48.869Z,6.30
2018-11-06T06:04:17.614Z,6.30
2018-11-06T06:06:46.318Z,6.30
2018-11-06T06:09:15.016Z,6.30
2018-11-06T06:11:43.753Z,6.30
2018-11-06T06:14:12.446Z,6.30
2018-11-06T06:16:41.156Z,6.20
2018-11-06T06:19:26.422Z,6.20
2018-11-06T06:21:55.141Z,6.20
2018-11-06T06:24:24.002Z,6.20
2018-11-06T06:26:52.734Z,6.20
2018-11-06T06:29:21.455Z,6.20
2018-11-06T06:31:50.167Z,6.20
2018-11-06T06:34:18.883Z,6.10
2018-11-06T06:36:47.594Z,6.10
2018-11-06T06:39:16.321Z,6.00
2018-11-06T06:41:48.170Z,5.80
2018-11-06T06:44:16.862Z,5.70
2018-11-06T06:46:45.562Z,5.70
2018-11-06T06:49:14.273Z,5.80
2018-11-06T06:51:42.982Z,5.90
2018-11-06T06:54:11.785Z,6.00
2018-11-06T06:56:40.414Z,6.00
2018-11-06T06:59:25.733Z,6.10
2018-11-06T07:01:54.445Z,6.10
2018-11-06T07:04:23.165Z,6.10
2018-11-06T07:06:51.864Z,6.10
2018-11-06T07:09:20.794Z,6.20
2018-11-06T07:12:09.769Z,6.20
2018-11-06T07:14:46.520Z,6.20
2018-11-06T07:17:15.217Z,6.30
2018-11-06T07:19:43.926Z,6.40
2018-11-06T07:22:17.862Z,6.40
2018-11-06T07:30:29.269Z,6.60
2018-11-06T07:36:02.545Z,6.50
2018-11-06T07:38:31.249Z,6.60
2018-11-06T07:41:00.143Z,6.60
2018-11-06T07:43:28.793Z,6.70
2018-11-06T07:45:57.533Z,6.70
2018-11-06T07:48:26.269Z,6.70
2018-11-06T07:50:54.970Z,6.60
2018-11-06T07:53:23.683Z,6.60
2018-11-06T07:55:52.459Z,6.60
2018-11-06T07:58:21.089Z,6.50
2018-11-06T08:00:49.843Z,6.40
2018-11-06T08:03:18.541Z,6.40
2018-11-06T08:05:47.242Z,6.40
2018-11-06T08:11:07.041Z,6.50
2018-11-06T08:13:45.517Z,6.60
2018-11-06T08:16:14.271Z,6.70
2018-11-06T08:18:42.973Z,6.80
2018-11-06T08:21:12.738Z,6.90
2018-11-06T08:23:41.504Z,7.00
2018-11-06T08:26:10.189Z,7.00
2018-11-06T08:28:38.866Z,7.00
2018-11-06T08:31:08.045Z,7.10
2018-11-06T08:33:36.245Z,7.10
2018-11-06T08:36:04.950Z,7.10
2018-11-06T08:38:33.746Z,7.10
2018-11-06T08:41:02.404Z,7.10
2018-11-06T08:43:46.461Z,7.10
2018-11-06T08:46:15.154Z,7.10
2018-11-06T08:48:43.855Z,7.20
2018-11-06T08:51:12.562Z,7.30
2018-11-06T08:53:41.290Z,7.40
2018-11-06T08:56:17.721Z,7.30
2018-11-06T08:58:46.434Z,7.40
2018-11-06T09:01:15.138Z,7.50
2018-11-06T09:03:43.865Z,7.50
2018-11-06T09:06:12.553Z,7.50
2018-11-06T09:08:41.278Z,7.60
2018-11-06T09:11:20.894Z,7.70
2018-11-06T09:13:49.638Z,7.80
2018-11-06T09:16:18.357Z,8.00
2018-11-06T09:18:47.057Z,8.10
2018-11-06T09:21:15.767Z,8.20
2018-11-06T09:23:50.925Z,8.20
2018-11-06T09:26:19.621Z,8.20
2018-11-06T09:28:55.189Z,8.20
2018-11-06T09:31:25.090Z,8.20
2018-11-06T09:33:53.785Z,8.30
2018-11-06T09:36:22.502Z,8.40
2018-11-06T09:38:51.193Z,8.40
2018-11-06T09:41:20.141Z,8.50
2018-11-06T09:43:48.817Z,8.50
2018-11-06T09:46:17.505Z,8.50
2018-11-06T09:48:46.250Z,8.60
2018-11-06T09:51:14.906Z,8.60
2018-11-06T09:53:43.625Z,8.70
2018-11-06T09:56:12.333Z,8.70
2018-11-06T09:58:41.032Z,8.70
2018-11-06T10:01:17.418Z,8.70
2018-11-06T10:03:46.125Z,8.90
2018-11-06T10:06:15.012Z,8.90
2018-11-06T10:08:43.936Z,9.00
2018-11-06T10:11:12.630Z,9.10
2018-11-06T10:13:57.981Z,9.20
2018-11-06T10:16:26.694Z,9.30
2018-11-06T10:18:55.389Z,9.40
2018-11-06T10:21:24.138Z,9.50
2018-11-06T10:24:10.228Z,9.60
2018-11-06T10:26:39.169Z,9.60
2018-11-06T10:29:07.864Z,9.70
2018-11-06T10:31:37.641Z,9.80
2018-11-06T10:34:06.471Z,9.90
2018-11-06T10:36:35.177Z,10.00
2018-11-06T10:39:07.735Z,10.00
2018-11-06T10:41:36.645Z,10.20
2018-11-06T10:44:05.598Z,10.20
2018-11-06T10:46:34.401Z,10.30
2018-11-06T10:49:03.126Z,10.30
2018-11-06T10:51:31.855Z,10.40
2018-11-06T10:54:00.549Z,10.40
2018-11-06T10:56:29.285Z,10.40
2018-11-06T10:58:58.027Z,10.40
2018-11-06T11:01:32.001Z,10.50
2018-11-06T11:04:07.029Z,10.60
2018-11-06T11:06:35.698Z,10.70
2018-11-06T11:09:06.837Z,10.70
2018-11-06T11:11:35.703Z,10.90
2018-11-06T11:14:04.653Z,11.00
2018-11-06T11:16:38.438Z,11.10
2018-11-06T11:19:07.291Z,11.20
2018-11-06T11:21:36.210Z,11.30
2018-11-06T11:24:11.827Z,11.50
2018-11-06T11:26:40.873Z,11.50
2018-11-06T11:29:09.770Z,11.60
2018-11-06T11:31:38.634Z,11.70
2018-11-06T11:34:07.523Z,11.70
2018-11-06T11:36:36.342Z,11.70
2018-11-06T11:39:09.558Z,11.70
2018-11-06T11:41:38.630Z,11.80
2018-11-06T11:44:07.791Z,11.80
2018-11-06T11:46:36.774Z,11.70
2018-11-06T11:49:05.708Z,11.80
2018-11-06T11:51:34.531Z,11.80
2018-11-06T11:54:03.399Z,11.80
2018-11-06T11:56:32.238Z,11.80
2018-11-06T11:59:01.124Z,11.80
2018-11-06T12:01:29.987Z,11.90
2018-11-06T12:03:58.815Z,11.90
2018-11-06T12:06:27.651Z,12.00
2018-11-06T12:08:56.523Z,12.00
2018-11-06T12:11:25.351Z,12.00
2018-11-06T12:13:54.138Z,12.10
2018-11-06T12:16:22.991Z,12.20
2018-11-06T12:18:51.831Z,12.20
2018-11-06T12:21:20.763Z,12.30
2018-11-06T12:23:49.630Z,12.30
2018-11-06T12:29:12.237Z,12.30
2018-11-06T12:31:40.985Z,12.30
2018-11-06T12:34:09.690Z,12.30
2018-11-06T12:36:38.551Z,12.40
2018-11-06T12:39:08.779Z,12.40
2018-11-06T12:41:38.546Z,12.40
2018-11-06T12:44:07.670Z,12.40
2018-11-06T12:46:36.589Z,12.40
2018-11-06T12:49:05.494Z,12.50
2018-11-06T12:51:34.338Z,12.50
2018-11-06T12:54:03.306Z,12.50
2018-11-06T12:56:32.014Z,12.60
2018-11-06T12:59:00.744Z,12.60
2018-11-06T13:01:29.670Z,12.70
2018-11-06T13:03:58.372Z,12.70
2018-11-06T13:06:27.081Z,12.70
2018-11-06T13:08:55.857Z,12.70
2018-11-06T13:11:24.557Z,12.60
2018-11-06T13:13:53.266Z,12.60
2018-11-06T13:16:23.014Z,12.60
2018-11-06T13:18:51.769Z,12.60
2018-11-06T13:21:20.506Z,12.60
2018-11-06T13:23:49.402Z,12.60
2018-11-06T13:26:18.365Z,12.60
2018-11-06T13:28:47.149Z,12.60
2018-11-06T13:31:16.142Z,12.70
2018-11-06T13:33:45.004Z,12.70
2018-11-06T13:36:13.826Z,12.70
2018-11-06T13:38:42.706Z,12.70
2018-11-06T13:41:11.526Z,12.70
2018-11-06T13:43:40.545Z,12.70
2018-11-06T13:46:09.241Z,12.70
2018-11-06T13:51:33.155Z,12.60
2018-11-06T13:54:01.878Z,12.60
2018-11-06T13:59:31.518Z,12.60
2018-11-06T14:02:00.294Z,12.60
2018-11-06T14:04:29.104Z,12.60
2018-11-06T14:06:57.765Z,12.60
2018-11-06T14:09:28.547Z,12.70
2018-11-06T14:11:57.259Z,12.70
2018-11-06T14:14:25.985Z,12.70
2018-11-06T14:16:54.705Z,12.70
2018-11-06T14:22:14.710Z,12.70
2018-11-06T14:24:43.430Z,12.70
2018-11-06T14:27:12.295Z,12.70
2018-11-06T14:29:53.543Z,12.70
2018-11-06T14:32:22.422Z,12.80
2018-11-06T14:34:51.259Z,12.80
2018-11-06T14:37:20.122Z,12.80
2018-11-06T14:39:48.956Z,12.80
2018-11-06T14:42:17.835Z,12.80
2018-11-06T14:44:46.610Z,12.80
2018-11-06T14:47:15.422Z,12.80
2018-11-06T14:49:44.215Z,12.80
2018-11-06T14:52:13.062Z,12.80
2018-11-06T14:54:41.967Z,12.80
2018-11-06T14:57:10.811Z,12.80
2018-11-06T14:59:39.695Z,12.70
2018-11-06T15:02:08.752Z,12.70
2018-11-06T15:04:37.599Z,12.70
2018-11-06T15:07:06.410Z,12.60
2018-11-06T15:09:35.193Z,12.60
2018-11-06T15:12:03.938Z,12.60
2018-11-06T15:14:32.642Z,12.50
2018-11-06T15:17:11.122Z,12.50
2018-11-06T15:19:39.829Z,12.50
2018-11-06T15:22:08.570Z,12.40
2018-11-06T15:24:37.284Z,12.40
2018-11-06T15:27:05.993Z,12.30
2018-11-06T15:29:34.697Z,12.20
2018-11-06T15:32:03.441Z,12.20
2018-11-06T15:34:32.154Z,12.20
2018-11-06T15:37:00.857Z,12.10
2018-11-06T15:39:29.644Z,12.00
2018-11-06T15:41:58.502Z,12.00
2018-11-06T15:44:27.017Z,12.00
2018-11-06T15:46:55.737Z,11.90
2018-11-06T15:49:24.442Z,11.90
2018-11-06T15:51:55.215Z,11.80
2018-11-06T15:54:24.153Z,11.70
2018-11-06T15:56:52.874Z,11.70
2018-11-06T15:59:21.577Z,11.70
2018-11-06T16:01:50.622Z,11.60
2018-11-06T16:04:19.286Z,11.50
2018-11-06T16:06:47.998Z,11.50
2018-11-06T16:09:16.755Z,11.50
2018-11-06T16:11:45.453Z,11.40
2018-11-06T16:14:14.153Z,11.50
2018-11-06T16:16:47.789Z,11.40
2018-11-06T16:19:16.511Z,11.40
2018-11-06T16:21:45.209Z,11.40
2018-11-06T16:24:14.000Z,11.30
2018-11-06T16:26:56.061Z,11.30
2018-11-06T16:29:24.801Z,11.20
2018-11-06T16:31:53.504Z,11.20
2018-11-06T16:34:24.450Z,11.20
2018-11-06T16:36:53.174Z,11.10
2018-11-06T16:39:21.877Z,11.10
2018-11-06T16:41:50.616Z,11.10
2018-11-06T16:44:19.329Z,11.10
2018-11-06T16:47:03.652Z,11.10
2018-11-06T16:49:32.365Z,11.00
2018-11-06T16:52:01.321Z,11.00
2018-11-06T16:54:30.033Z,11.00
2018-11-06T16:57:09.585Z,11.00
2018-11-06T16:59:38.297Z,10.90
2018-11-06T17:02:06.952Z,10.90
2018-11-06T17:04:35.689Z,10.90
2018-11-06T17:07:04.669Z,10.90
2018-11-06T17:09:33.401Z,10.80
2018-11-06T17:12:02.206Z,10.80
2018-11-06T17:14:31.017Z,10.80
2018-11-06T17:16:59.750Z,10.80
2018-11-06T17:19:28.462Z,10.70
2018-11-06T17:21:57.173Z,10.70
2018-11-06T17:24:49.229Z,10.70
2018-11-06T17:27:17.958Z,10.60
2018-11-06T17:29:46.834Z,10.60
2018-11-06T17:32:15.546Z,10.60
2018-11-06T17:34:44.258Z,10.60
2018-11-06T17:37:13.085Z,10.60
2018-11-06T17:39:41.923Z,10.50
2018-11-06T17:42:10.561Z,10.50
2018-11-06T17:44:39.274Z,10.50
2018-11-06T17:47:07.983Z,10.50
2018-11-06T17:55:31.026Z,10.30
2018-11-06T17:57:59.677Z,10.30
2018-11-06T18:00:28.434Z,10.20
2018-11-06T18:02:57.158Z,10.20
2018-11-06T18:05:26.307Z,10.20
2018-11-06T18:07:55.080Z,10.20
2018-11-06T18:10:23.862Z,10.10
2018-11-06T18:12:52.530Z,10.10
2018-11-06T18:15:21.266Z,10.10
2018-11-06T18:17:50.174Z,10.10
2018-11-06T18:20:18.742Z,10.10
2018-11-06T18:22:47.460Z,10.20
2018-11-06T18:25:16.482Z,10.10
2018-11-06T18:27:45.138Z,10.10
2018-11-06T18:30:15.833Z,10.10
2018-11-06T18:32:44.602Z,10.00
2018-11-06T18:35:14.377Z,10.00
2018-11-06T18:37:43.298Z,9.90
2018-11-06T18:40:14.619Z,9.90
2018-11-06T18:42:44.170Z,9.90
2018-11-06T18:45:13.695Z,9.90
2018-11-06T18:47:42.578Z,9.90
2018-11-06T18:50:12.699Z,9.90
2018-11-06T18:52:42.734Z,9.90
2018-11-06T18:55:25.166Z,9.90
2018-11-06T18:57:55.047Z,9.90
2018-11-06T19:00:24.311Z,9.90
2018-11-06T19:02:56.699Z,9.90
2018-11-06T19:05:26.625Z,9.90
2018-11-06T19:07:55.447Z,9.80
2018-11-06T19:10:24.250Z,9.80
2018-11-06T19:12:52.986Z,9.80
2018-11-06T19:15:22.953Z,9.70
2018-11-06T19:17:51.818Z,9.70
2018-11-06T19:20:20.525Z,9.70
2018-11-06T19:22:49.241Z,9.60
2018-11-06T19:25:17.951Z,9.60
2018-11-06T19:27:46.668Z,9.60
2018-11-06T19:30:17.785Z,9.60
2018-11-06T19:32:46.598Z,9.60
2018-11-06T19:35:15.348Z,9.60
2018-11-06T19:37:44.295Z,9.60
2018-11-06T19:40:14.258Z,9.60
2018-11-06T19:42:43.878Z,9.60
2018-11-06T19:45:13.074Z,9.50
2018-11-06T19:47:41.782Z,9.50
2018-11-06T19:50:17.153Z,9.50
2018-11-06T19:52:53.609Z,9.40
2018-11-06T19:55:23.180Z,9.40
2018-11-06T19:57:51.949Z,9.40
2018-11-06T20:00:21.913Z,9.30
2018-11-06T20:02:51.769Z,9.30
2018-11-06T20:05:20.638Z,9.30
2018-11-06T20:07:50.284Z,9.30
2018-11-06T20:10:20.612Z,9.30
2018-11-06T20:12:50.298Z,9.30
2018-11-06T20:15:26.270Z,9.30
2018-11-06T20:17:55.011Z,9.30
2018-11-06T20:20:25.049Z,9.30
2018-11-06T20:23:00.485Z,9.30
2018-11-06T20:25:29.254Z,9.30
2018-11-06T20:27:57.962Z,9.30
2018-11-06T20:30:27.314Z,9.30
2018-11-06T20:33:01.238Z,9.30
2018-11-06T20:35:30.275Z,9.30
2018-11-06T20:37:59.026Z,9.20
2018-11-06T20:40:27.974Z,9.30
2018-11-06T20:42:56.842Z,9.20
2018-11-06T20:45:25.498Z,9.20
2018-11-06T20:47:54.670Z,9.20
2018-11-06T20:50:24.341Z,9.20
2018-11-06T20:52:53.174Z,9.20
2018-11-06T20:55:21.842Z,9.20
2018-11-06T20:57:50.841Z,9.20
2018-11-06T21:00:22.234Z,9.20
2018-11-06T21:02:52.219Z,9.20
2018-11-06T21:05:21.174Z,9.20
2018-11-06T21:07:56.921Z,9.20
2018-11-06T21:10:27.198Z,9.20
2018-11-06T21:12:56.003Z,9.20
2018-11-06T21:15:33.285Z,9.20
2018-11-06T21:18:02.159Z,9.20
2018-11-06T21:20:30.781Z,9.30
2018-11-06T21:22:59.530Z,9.30
2018-11-06T21:25:28.370Z,9.30
2018-11-06T21:27:57.006Z,9.30
2018-11-06T21:30:25.812Z,9.30
2018-11-06T21:32:54.732Z,9.30
2018-11-06T21:35:23.468Z,9.30
2018-11-06T21:37:52.204Z,9.30
2018-11-06T21:40:21.626Z,9.30
2018-11-06T21:42:50.822Z,9.30
2018-11-06T21:45:19.796Z,9.30
2018-11-06T21:47:49.285Z,9.30
2018-11-06T21:50:18.398Z,9.30
2018-11-06T21:52:47.149Z,9.30
2018-11-06T21:55:17.077Z,9.30
2018-11-06T21:57:45.807Z,9.30
2018-11-06T22:00:15.884Z,9.30
2018-11-06T22:02:44.518Z,9.30
2018-11-06T22:05:14.598Z,9.30
2018-11-06T22:08:00.862Z,9.30
2018-11-06T22:10:29.759Z,9.40
2018-11-06T22:12:58.492Z,9.40
2018-11-06T22:15:27.186Z,9.50
2018-11-06T22:17:55.919Z,9.60
2018-11-06T22:20:24.622Z,9.60
2018-11-06T22:22:53.360Z,9.60
2018-11-06T22:25:22.266Z,9.60
2018-11-06T22:27:50.969Z,9.70
2018-11-06T22:30:19.670Z,9.70
2018-11-06T22:32:48.436Z,9.70
2018-11-06T22:38:08.495Z,9.80
2018-11-06T22:40:37.116Z,9.80
2018-11-06T22:43:05.832Z,9.90
2018-11-06T22:45:34.537Z,9.90
2018-11-06T22:48:03.253Z,9.90
2018-11-06T22:50:31.990Z,9.90
2018-11-06T22:53:00.741Z,9.90
2018-11-06T22:55:29.421Z,9.90
2018-11-06T22:57:58.175Z,9.90
2018-11-06T23:01:36.329Z,9.90
2018-11-06T23:04:05.542Z,9.90
2018-11-06T23:06:34.264Z,9.90
2018-11-06T23:09:03.649Z,9.90
2018-11-06T23:11:32.399Z,9.90
2018-11-06T23:14:01.153Z,9.90
2018-11-06T23:16:29.917Z,9.90
2018-11-06T23:18:58.635Z,9.90
2018-11-06T23:21:27.361Z,9.90
2018-11-06T23:23:56.090Z,9.90
2018-11-06T23:26:24.916Z,9.90
2018-11-06T23:28:53.562Z,9.90
2018-11-06T23:31:22.280Z,9.90
2018-11-06T23:33:51.019Z,9.90
2018-11-06T23:36:19.772Z,9.90
2018-11-06T23:38:48.481Z,9.80
2018-11-06T23:41:17.213Z,9.80
2018-11-06T23:43:45.948Z,9.70
2018-11-06T23:46:14.650Z,9.70
2018-11-06T23:48:43.385Z,9.70
2018-11-06T23:51:12.099Z,9.70
2018-11-06T23:53:40.797Z,9.70
2018-11-06T23:56:09.535Z,9.70
2018-11-06T23:58:38.270Z,9.80
